Terminal Aerodrome Forecast
Issued by NWS Birmingham, AL

Home | Current Version | Previous Version | Text Only | Print | Product List | Glossary On
Versions: 1 2 3 4 5 6 7 8 9 10 11 12 13 14 15 16 17 18 19 20
431
FTUS44 KBMX 201720
TAFBHM
TAF
KBHM 201720Z 2018/2118 14005KT P6SM BKN250
     FM210700 14005KT P6SM OVC100
     FM210800 12006KT P6SM OVC050
     FM211200 12007KT P6SM VCSH OVC050
     FM211400 12009G15KT 5SM -RA OVC050
     FM211500 12011G17KT 5SM RA OVC025=

USA.gov is the U.S. government's official web portal to all federal, state and local government web resources and services.